createdAt,value
2022-09-11T00:01:34.304Z,36.08
2022-09-11T00:04:03.273Z,38.40
2022-09-11T00:06:31.020Z,37.80
2022-09-11T00:09:04.514Z,36.17
2022-09-11T00:11:40.405Z,42.13
2022-09-11T00:14:08.092Z,30.27
2022-09-11T00:16:39.103Z,32.30
2022-09-11T00:19:28.607Z,36.03
2022-09-11T00:21:57.224Z,34.22
2022-09-11T00:24:24.812Z,32.85
2022-09-11T00:26:52.278Z,34.17
2022-09-11T00:29:19.708Z,35.83
2022-09-11T00:31:49.140Z,35.10
2022-09-11T00:34:17.269Z,35.05
2022-09-11T00:36:44.733Z,32.65
2022-09-11T00:39:14.171Z,33.97
2022-09-11T00:41:44.989Z,30.17
2022-09-11T00:44:35.522Z,32.80
2022-09-11T00:47:09.060Z,36.40
2022-09-11T00:49:51.125Z,30.25
2022-09-11T00:52:27.208Z,39.80
2022-09-11T00:55:01.000Z,36.90
2022-09-11T00:57:33.561Z,34.80
2022-09-11T01:00:03.242Z,36.97
2022-09-11T01:02:34.806Z,35.92
2022-09-11T01:05:03.337Z,38.60
2022-09-11T01:07:32.099Z,35.88
2022-09-11T01:10:00.219Z,39.20
2022-09-11T01:12:43.580Z,38.05
2022-09-11T01:15:23.232Z,39.65
2022-09-11T01:18:00.355Z,38.83
2022-09-11T01:20:49.309Z,39.08
2022-09-11T01:23:34.950Z,37.80
2022-09-11T01:26:32.691Z,36.75
2022-09-11T01:29:30.169Z,37.05
2022-09-11T01:32:18.860Z,34.05
2022-09-11T01:35:04.340Z,40.90
2022-09-11T01:38:12.113Z,37.85
2022-09-11T01:40:49.253Z,34.08
2022-09-11T01:43:23.019Z,35.83
2022-09-11T01:45:53.146Z,42.75
2022-09-11T01:48:26.373Z,43.15
2022-09-11T01:50:57.039Z,40.70
2022-09-11T01:53:29.045Z,40.60
2022-09-11T01:56:06.677Z,41.05
2022-09-11T01:58:36.782Z,40.20
2022-09-11T02:01:37.928Z,43.05
2022-09-11T02:04:18.058Z,44.28
2022-09-11T02:06:53.928Z,38.92
2022-09-11T02:09:24.965Z,43.08
2022-09-11T02:11:55.797Z,39.42
2022-09-11T02:14:32.208Z,38.15
2022-09-11T02:17:05.315Z,40.15
2022-09-11T02:19:32.737Z,55.13
2022-09-11T02:22:00.603Z,35.47
2022-09-11T02:24:29.475Z,40.50
2022-09-11T02:27:02.680Z,40.50
2022-09-11T02:29:30.314Z,42.28
2022-09-11T02:31:57.898Z,40.17
2022-09-11T02:34:29.594Z,36.22
2022-09-11T02:37:21.269Z,35.92
2022-09-11T02:40:13.622Z,34.87
2022-09-11T02:43:05.941Z,37.60
2022-09-11T02:45:57.981Z,44.55
2022-09-11T02:49:17.119Z,44.65
2022-09-11T02:52:05.944Z,37.33
2022-09-11T02:54:43.805Z,43.45
2022-09-11T02:57:34.772Z,46.95
2022-09-11T03:00:05.634Z,46.55
2022-09-11T03:02:36.369Z,42.83
2022-09-11T03:05:05.054Z,41.17
2022-09-11T03:07:33.051Z,49.95
2022-09-11T03:10:00.545Z,46.03
2022-09-11T03:12:28.580Z,49.05
2022-09-11T03:14:57.091Z,43.00
2022-09-11T03:17:25.551Z,46.28
2022-09-11T03:19:52.970Z,44.72
2022-09-11T03:22:20.719Z,43.47
2022-09-11T03:24:48.169Z,44.28
2022-09-11T03:27:15.642Z,41.10
2022-09-11T03:29:43.900Z,40.95
2022-09-11T03:32:11.818Z,41.35
2022-09-11T03:34:39.290Z,41.63
2022-09-11T03:37:06.800Z,41.75
2022-09-11T03:39:34.460Z,39.60
2022-09-11T03:42:02.091Z,41.17
2022-09-11T03:44:29.565Z,44.92
2022-09-11T03:46:57.240Z,39.67
2022-09-11T03:49:24.752Z,42.90
2022-09-11T03:51:52.685Z,38.38
2022-09-11T03:54:20.913Z,43.88
2022-09-11T03:56:48.321Z,42.88
2022-09-11T03:59:15.798Z,47.78
2022-09-11T04:01:43.263Z,46.17
2022-09-11T04:04:10.779Z,40.25
2022-09-11T04:06:38.212Z,41.00
2022-09-11T04:09:05.674Z,40.95
2022-09-11T04:11:37.404Z,37.25
2022-09-11T04:14:05.577Z,38.85
2022-09-11T04:16:33.474Z,37.42
2022-09-11T04:19:04.493Z,37.90
2022-09-11T04:21:32.338Z,36.78
2022-09-11T04:24:00.501Z,34.70
2022-09-11T04:26:33.167Z,32.65
2022-09-11T04:29:01.255Z,36.80
2022-09-11T04:31:28.983Z,34.90
2022-09-11T04:33:58.186Z,39.78
2022-09-11T04:36:27.094Z,38.50
2022-09-11T04:38:57.799Z,42.83
2022-09-11T04:41:26.604Z,37.80
2022-09-11T04:44:03.901Z,42.80
2022-09-11T04:46:32.452Z,39.92
2022-09-11T04:49:00.261Z,37.65
2022-09-11T04:51:33.952Z,33.20
2022-09-11T04:54:02.220Z,34.15
2022-09-11T04:56:32.397Z,42.15
2022-09-11T04:59:02.489Z,36.88
2022-09-11T05:01:32.106Z,32.85
2022-09-11T05:04:00.568Z,37.72
2022-09-11T05:06:30.204Z,39.45
2022-09-11T05:09:01.610Z,36.35
2022-09-11T05:11:30.102Z,35.87
2022-09-11T05:13:59.942Z,38.67
2022-09-11T05:16:29.301Z,43.15
2022-09-11T05:18:59.237Z,37.10
2022-09-11T05:21:27.715Z,38.20
2022-09-11T05:23:57.874Z,39.38
2022-09-11T05:26:36.857Z,44.70
2022-09-11T05:29:12.918Z,41.70
2022-09-11T05:31:40.863Z,40.80
2022-09-11T05:34:09.698Z,45.22
2022-09-11T05:36:37.368Z,38.30
2022-09-11T05:39:05.694Z,42.15
2022-09-11T05:41:33.242Z,41.80
2022-09-11T05:44:00.711Z,40.47
2022-09-11T05:46:28.191Z,44.35
2022-09-11T05:48:55.667Z,38.55
2022-09-11T05:51:23.824Z,36.13
2022-09-11T05:53:56.785Z,34.13
2022-09-11T05:56:26.098Z,43.38
2022-09-11T05:58:54.016Z,34.75
2022-09-11T06:01:24.189Z,36.40
2022-09-11T06:03:51.889Z,38.65
2022-09-11T06:06:22.156Z,37.35
2022-09-11T06:08:51.778Z,35.40
2022-09-11T06:11:21.182Z,39.38
2022-09-11T06:13:49.504Z,39.00
2022-09-11T06:16:22.299Z,39.95
2022-09-11T06:18:51.648Z,37.38
2022-09-11T06:21:21.069Z,36.78
2022-09-11T06:23:53.246Z,38.60
2022-09-11T06:26:23.565Z,37.17
2022-09-11T06:28:51.945Z,38.17
2022-09-11T06:31:22.137Z,40.78
2022-09-11T06:33:51.019Z,40.97
2022-09-11T06:36:20.599Z,41.65
2022-09-11T06:38:53.235Z,37.05
2022-09-11T06:41:20.970Z,40.75
2022-09-11T06:43:49.173Z,44.20
2022-09-11T06:46:21.936Z,47.42
2022-09-11T06:48:51.185Z,48.30
2022-09-11T06:51:20.878Z,42.28
2022-09-11T06:53:48.696Z,45.50
2022-09-11T06:56:18.541Z,42.85
2022-09-11T06:58:46.769Z,41.40
2022-09-11T07:01:16.721Z,41.65
2022-09-11T07:03:46.068Z,40.65
2022-09-11T07:06:18.572Z,41.53
2022-09-11T07:08:52.133Z,42.47
2022-09-11T07:11:20.530Z,36.15
2022-09-11T07:13:48.103Z,38.20
2022-09-11T07:16:16.435Z,35.80
2022-09-11T07:18:46.420Z,36.42
2022-09-11T07:21:15.171Z,28.42
2022-09-11T07:23:44.113Z,31.10
2022-09-11T07:26:13.781Z,29.13
2022-09-11T07:28:41.614Z,32.42
2022-09-11T07:31:15.330Z,27.80
2022-09-11T07:33:48.684Z,25.67
2022-09-11T07:36:18.686Z,20.30
2022-09-11T07:38:47.878Z,21.30
2022-09-11T07:41:17.181Z,22.60
2022-09-11T07:43:46.319Z,18.67
2022-09-11T07:46:15.190Z,19.33
2022-09-11T07:48:43.450Z,16.88
2022-09-11T07:51:13.956Z,16.38
2022-09-11T07:53:44.163Z,16.27
2022-09-11T07:56:14.781Z,15.27
2022-09-11T07:58:44.079Z,13.93
2022-09-11T08:01:14.313Z,15.15
2022-09-11T08:03:43.067Z,14.25
2022-09-11T08:06:17.834Z,15.18
2022-09-11T08:08:48.956Z,13.80
2022-09-11T08:11:19.082Z,13.48
2022-09-11T08:13:51.954Z,11.25
2022-09-11T08:16:24.552Z,16.75
2022-09-11T08:18:52.316Z,16.70
2022-09-11T08:21:20.332Z,16.05
2022-09-11T08:23:48.980Z,13.10
2022-09-11T08:26:22.675Z,16.55
2022-09-11T08:28:52.111Z,14.23
2022-09-11T08:31:22.111Z,11.68
2022-09-11T08:33:50.202Z,7.80
2022-09-11T08:36:17.781Z,3.58
2022-09-11T08:38:46.486Z,4.72
2022-09-11T08:41:21.744Z,4.70
2022-09-11T08:43:56.600Z,9.43
2022-09-11T08:46:27.888Z,5.65
2022-09-11T08:49:03.305Z,7.90
2022-09-11T08:51:32.285Z,6.38
2022-09-11T08:54:01.940Z,7.20
2022-09-11T08:56:33.480Z,3.80
2022-09-11T08:59:06.757Z,6.63
2022-09-11T09:01:47.110Z,5.07
2022-09-11T09:04:33.043Z,2.70
2022-09-11T09:07:22.814Z,3.13
2022-09-11T09:10:02.151Z,4.13
2022-09-11T09:12:45.384Z,4.88
2022-09-11T09:15:36.995Z,4.93
2022-09-11T09:18:11.702Z,2.90
2022-09-11T09:20:47.550Z,5.13
2022-09-11T09:23:21.981Z,5.50
2022-09-11T09:25:52.698Z,4.28
2022-09-11T09:28:21.912Z,3.45
2022-09-11T09:30:57.264Z,2.05
2022-09-11T09:33:39.907Z,2.03
2022-09-11T09:36:18.942Z,3.13
2022-09-11T09:38:47.034Z,3.42
2022-09-11T09:41:45.509Z,4.43
2022-09-11T09:44:29.933Z,2.75
2022-09-11T09:46:57.492Z,2.63
2022-09-11T09:49:34.957Z,1.65
2022-09-11T09:52:16.666Z,3.10
2022-09-11T09:54:44.976Z,1.02
2022-09-11T09:57:13.699Z,2.88
2022-09-11T09:59:46.830Z,3.03
2022-09-11T10:02:14.394Z,2.80
2022-09-11T10:04:41.893Z,2.95
2022-09-11T10:07:12.330Z,7.75
2022-09-11T10:09:47.532Z,2.47
2022-09-11T10:12:22.810Z,3.90
2022-09-11T10:15:03.098Z,4.20
2022-09-11T10:17:31.196Z,5.93
2022-09-11T10:20:18.512Z,2.22
2022-09-11T10:22:49.601Z,4.35
2022-09-11T10:25:26.505Z,2.25
2022-09-11T10:28:14.284Z,2.92
2022-09-11T10:30:49.470Z,2.70
2022-09-11T10:33:41.566Z,2.83
2022-09-11T10:36:10.951Z,1.95
2022-09-11T10:38:48.180Z,4.78
2022-09-11T10:41:15.907Z,2.60
2022-09-11T10:44:05.463Z,2.53
2022-09-11T10:46:43.394Z,5.47
2022-09-11T10:49:21.921Z,4.78
2022-09-11T10:52:15.802Z,2.90
2022-09-11T10:55:08.593Z,3.60
2022-09-11T10:57:49.890Z,4.50
2022-09-11T11:00:20.357Z,2.60
2022-09-11T11:02:51.401Z,2.13
2022-09-11T11:05:54.029Z,3.87
2022-09-11T11:08:36.523Z,4.32
2022-09-11T11:11:22.266Z,5.75
2022-09-11T11:13:55.620Z,2.45
2022-09-11T11:16:45.408Z,5.68
2022-09-11T11:19:31.355Z,4.80
2022-09-11T11:21:58.794Z,3.75
2022-09-11T11:24:38.248Z,3.58
2022-09-11T11:27:08.688Z,4.53
2022-09-11T11:29:50.532Z,6.53
2022-09-11T11:32:27.975Z,3.25
2022-09-11T11:35:18.179Z,6.10
2022-09-11T11:37:49.126Z,4.55
2022-09-11T11:40:24.751Z,3.07
2022-09-11T11:43:17.471Z,4.07
2022-09-11T11:45:50.767Z,2.00
2022-09-11T11:48:29.323Z,1.70
2022-09-11T11:51:06.873Z,5.78
2022-09-11T11:53:49.339Z,2.42
2022-09-11T11:56:42.826Z,3.58
2022-09-11T11:59:24.469Z,2.95
2022-09-11T12:01:59.837Z,2.97
2022-09-11T12:04:36.436Z,2.95
2022-09-11T12:07:05.721Z,2.70
2022-09-11T12:09:34.116Z,5.95
2022-09-11T12:12:07.479Z,2.22
2022-09-11T12:14:35.147Z,1.52
2022-09-11T12:17:28.480Z,3.38
2022-09-11T12:20:11.155Z,3.33
2022-09-11T12:22:38.968Z,3.83
2022-09-11T12:25:21.776Z,3.05
2022-09-11T12:27:49.746Z,3.25
2022-09-11T12:30:17.415Z,1.88
2022-09-11T12:32:53.697Z,2.38
2022-09-11T12:35:32.864Z,3.40
2022-09-11T12:38:13.609Z,2.85
2022-09-11T12:40:58.502Z,1.90
2022-09-11T12:43:31.883Z,3.25
2022-09-11T12:45:59.898Z,5.25
2022-09-11T12:48:56.179Z,2.72
2022-09-11T12:51:42.895Z,3.78
2022-09-11T12:54:22.683Z,3.03
2022-09-11T12:57:02.269Z,2.65
2022-09-11T12:59:39.585Z,2.38
2022-09-11T13:02:26.877Z,4.13
2022-09-11T13:04:56.383Z,3.45
2022-09-11T13:07:46.311Z,2.10
2022-09-11T13:10:33.414Z,2.30
2022-09-11T13:13:03.292Z,3.15
2022-09-11T13:15:42.467Z,2.17
2022-09-11T13:18:32.154Z,5.85
2022-09-11T13:21:14.721Z,3.38
2022-09-11T13:23:43.169Z,1.90
2022-09-11T13:26:18.995Z,3.90
2022-09-11T13:28:49.303Z,3.63
2022-09-11T13:31:26.897Z,1.60
2022-09-11T13:33:55.218Z,5.50
2022-09-11T13:36:25.621Z,5.90
2022-09-11T13:39:00.241Z,2.17
2022-09-11T13:41:32.196Z,1.75
2022-09-11T13:44:02.250Z,2.58
2022-09-11T13:46:32.290Z,2.45
2022-09-11T13:49:13.444Z,4.70
2022-09-11T13:51:45.780Z,3.92
2022-09-11T13:54:24.476Z,4.80
2022-09-11T13:56:58.037Z,2.38
2022-09-11T13:59:26.361Z,2.92
2022-09-11T14:02:00.834Z,2.05
2022-09-11T14:04:31.093Z,2.85
2022-09-11T14:06:58.761Z,2.92
2022-09-11T14:09:26.274Z,3.30
2022-09-11T14:11:53.849Z,3.58
2022-09-11T14:14:29.097Z,3.85
2022-09-11T14:17:01.328Z,5.35
2022-09-11T14:19:32.788Z,2.60
2022-09-11T14:22:02.437Z,3.35
2022-09-11T14:24:32.689Z,2.75
2022-09-11T14:27:01.987Z,1.85
2022-09-11T14:29:37.446Z,8.02
2022-09-11T14:32:37.025Z,3.13
2022-09-11T14:35:07.385Z,2.65
2022-09-11T14:37:40.803Z,4.45
2022-09-11T14:40:16.377Z,3.72
2022-09-11T14:42:44.350Z,2.38
2022-09-11T14:45:19.272Z,2.65
2022-09-11T14:47:46.748Z,2.35
2022-09-11T14:50:14.417Z,6.25
2022-09-11T14:52:43.276Z,2.80
2022-09-11T14:55:19.186Z,2.33
2022-09-11T14:57:47.492Z,2.30
2022-09-11T15:00:16.352Z,4.82
2022-09-11T15:02:43.944Z,2.55
2022-09-11T15:05:16.104Z,11.77
2022-09-11T15:07:45.434Z,6.40
2022-09-11T15:10:14.085Z,4.55
2022-09-11T15:12:42.562Z,5.78
2022-09-11T15:15:10.620Z,3.97
2022-09-11T15:17:38.353Z,2.78
2022-09-11T15:20:09.091Z,2.13
2022-09-11T15:22:38.159Z,2.08
2022-09-11T15:25:06.235Z,2.15
2022-09-11T15:27:33.979Z,2.40
2022-09-11T15:30:01.626Z,3.80
2022-09-11T15:32:29.135Z,3.55
2022-09-11T15:34:56.688Z,3.17
2022-09-11T15:37:25.509Z,3.90
2022-09-11T15:39:53.095Z,3.55
2022-09-11T15:42:20.606Z,3.00
2022-09-11T15:44:50.577Z,2.35
2022-09-11T15:47:18.034Z,2.80
2022-09-11T15:49:47.854Z,2.83
2022-09-11T15:52:15.586Z,4.13
2022-09-11T15:54:45.440Z,4.30
2022-09-11T15:57:13.279Z,3.78
2022-09-11T15:59:40.939Z,1.60
2022-09-11T16:02:09.257Z,2.10
2022-09-11T16:04:37.288Z,3.05
2022-09-11T16:07:05.201Z,2.55
2022-09-11T16:09:33.485Z,2.28
2022-09-11T16:12:02.097Z,1.80
2022-09-11T16:14:35.322Z,3.58
2022-09-11T16:17:05.461Z,2.63
2022-09-11T16:19:33.384Z,2.65
2022-09-11T16:22:03.494Z,7.85
2022-09-11T16:24:37.634Z,3.00
2022-09-11T16:27:07.781Z,1.52
2022-09-11T16:30:25.789Z,4.00
2022-09-11T16:32:31.401Z,1.70
2022-09-11T16:34:59.743Z,4.13
2022-09-11T16:37:28.149Z,2.28
2022-09-11T16:39:55.679Z,1.92
2022-09-11T16:42:23.226Z,2.53
2022-09-11T16:44:50.759Z,6.05
2022-09-11T16:47:20.068Z,2.92
2022-09-11T16:50:06.350Z,2.95
2022-09-11T16:52:35.081Z,3.95
2022-09-11T16:55:02.684Z,3.75
2022-09-11T16:57:30.992Z,2.13
2022-09-11T16:59:58.499Z,5.07
2022-09-11T17:02:26.502Z,1.85
2022-09-11T17:04:54.000Z,1.65
2022-09-11T17:07:21.740Z,6.32
2022-09-11T17:09:49.235Z,5.45
2022-09-11T17:12:17.647Z,6.80
2022-09-11T17:14:45.101Z,6.03
2022-09-11T17:17:12.632Z,4.15
2022-09-11T17:19:40.360Z,3.53
2022-09-11T17:22:08.396Z,3.80
2022-09-11T17:24:36.303Z,6.07
2022-09-11T17:27:04.059Z,2.53
2022-09-11T17:29:31.578Z,4.07
2022-09-11T17:32:23.792Z,2.97
2022-09-11T17:34:46.939Z,3.67
2022-09-11T17:37:15.767Z,2.35
2022-09-11T17:39:43.348Z,8.80
2022-09-11T17:42:13.167Z,2.88
2022-09-11T17:44:43.123Z,3.25
2022-09-11T17:47:10.792Z,4.18
2022-09-11T17:49:38.998Z,4.55
2022-09-11T17:52:07.241Z,5.75
2022-09-11T17:54:34.650Z,2.45
2022-09-11T17:57:02.110Z,5.07
2022-09-11T17:59:29.586Z,2.83
2022-09-11T18:02:00.949Z,3.53
2022-09-11T18:04:28.577Z,3.53
2022-09-11T18:06:56.080Z,5.10
2022-09-11T18:09:23.756Z,3.85
2022-09-11T18:11:53.824Z,6.70
2022-09-11T18:14:21.587Z,4.35
2022-09-11T18:16:49.234Z,3.55
2022-09-11T18:19:20.215Z,2.55
2022-09-11T18:21:50.356Z,3.50
2022-09-11T18:24:20.793Z,4.25
2022-09-11T18:26:50.753Z,4.40
2022-09-11T18:29:20.281Z,3.33
2022-09-11T18:31:51.636Z,4.35
2022-09-11T18:34:21.870Z,4.18
2022-09-11T18:36:49.748Z,9.88
2022-09-11T18:39:18.698Z,2.42
2022-09-11T18:41:47.717Z,5.40
2022-09-11T18:44:19.885Z,2.97
2022-09-11T18:46:48.218Z,8.30
2022-09-11T18:49:16.581Z,3.17
2022-09-11T18:51:44.176Z,7.05
2022-09-11T18:54:16.613Z,4.05
2022-09-11T18:56:45.441Z,3.22
2022-09-11T18:59:14.092Z,5.25
2022-09-11T19:01:42.320Z,2.58
2022-09-11T19:04:12.070Z,5.55
2022-09-11T19:06:40.309Z,4.88
2022-09-11T19:09:12.590Z,6.75
2022-09-11T19:11:40.350Z,5.53
2022-09-11T19:14:10.201Z,4.60
2022-09-11T19:16:38.226Z,4.28
2022-09-11T19:19:07.327Z,5.53
2022-09-11T19:21:35.189Z,6.20
2022-09-11T19:24:02.893Z,8.48
2022-09-11T19:26:33.698Z,4.90
2022-09-11T19:29:01.903Z,4.90
2022-09-11T19:31:30.546Z,3.78
2022-09-11T19:34:00.827Z,3.47
2022-09-11T19:36:34.294Z,4.68
2022-09-11T19:39:02.591Z,4.38
2022-09-11T19:41:35.261Z,4.97
2022-09-11T19:44:03.946Z,7.53
2022-09-11T19:46:33.698Z,7.28
2022-09-11T19:49:03.746Z,4.93
2022-09-11T19:51:33.743Z,10.10
2022-09-11T19:54:02.597Z,6.07
2022-09-11T19:56:31.178Z,5.13
2022-09-11T19:59:00.324Z,5.50
2022-09-11T20:01:29.987Z,9.20
2022-09-11T20:04:00.384Z,6.32
2022-09-11T20:06:31.632Z,8.55
2022-09-11T20:09:27.264Z,5.78
2022-09-11T20:11:47.896Z,8.77
2022-09-11T20:14:15.397Z,9.93
2022-09-11T20:16:42.971Z,11.88
2022-09-11T20:19:11.081Z,8.85
2022-09-11T20:21:39.308Z,12.27
2022-09-11T20:24:07.527Z,8.13
2022-09-11T20:26:35.343Z,9.43
2022-09-11T20:29:09.481Z,11.63
2022-09-11T20:31:46.536Z,12.32
2022-09-11T20:34:16.134Z,8.43
2022-09-11T20:36:43.749Z,15.32
2022-09-11T20:39:12.878Z,15.10
2022-09-11T20:41:40.457Z,11.75
2022-09-11T20:44:08.038Z,12.43
2022-09-11T20:46:35.625Z,15.77
2022-09-11T20:49:09.139Z,13.68
2022-09-11T20:51:36.629Z,15.75
2022-09-11T20:54:04.198Z,13.90
2022-09-11T20:56:32.077Z,13.07
2022-09-11T20:59:00.618Z,19.38
2022-09-11T21:01:32.301Z,19.73
2022-09-11T21:04:01.145Z,19.85
2022-09-11T21:06:32.186Z,13.80
2022-09-11T21:09:02.602Z,15.05
2022-09-11T21:11:31.202Z,17.65
2022-09-11T21:13:58.809Z,20.45
2022-09-11T21:16:26.277Z,16.38
2022-09-11T21:18:56.243Z,17.38
2022-09-11T21:21:25.318Z,17.67
2022-09-11T21:23:57.006Z,18.77
2022-09-11T21:26:26.155Z,15.55
2022-09-11T21:28:53.861Z,18.42
2022-09-11T21:31:21.536Z,19.73
2022-09-11T21:33:49.321Z,17.30
2022-09-11T21:36:17.876Z,15.40
2022-09-11T21:38:45.480Z,19.80
2022-09-11T21:41:14.561Z,19.63
2022-09-11T21:43:42.137Z,21.65
2022-09-11T21:46:10.694Z,21.60
2022-09-11T21:48:40.438Z,20.80
2022-09-11T21:51:18.541Z,21.75
2022-09-11T21:53:47.903Z,20.65
2022-09-11T21:56:20.794Z,23.52
2022-09-11T21:58:51.069Z,24.85
2022-09-11T22:01:20.293Z,29.27
2022-09-11T22:03:47.933Z,20.45
2022-09-11T22:06:15.620Z,21.08
2022-09-11T22:08:46.122Z,27.48
2022-09-11T22:11:15.020Z,24.98
2022-09-11T22:13:42.642Z,26.13
2022-09-11T22:16:13.107Z,29.40
2022-09-11T22:18:41.646Z,26.60
2022-09-11T22:21:10.329Z,27.70
2022-09-11T22:23:37.789Z,31.25
2022-09-11T22:26:24.387Z,25.58
2022-09-11T22:28:52.949Z,28.60
2022-09-11T22:31:23.910Z,27.95
2022-09-11T22:33:52.193Z,36.58
2022-09-11T22:36:23.520Z,32.42
2022-09-11T22:38:51.271Z,28.10
2022-09-11T22:41:19.039Z,30.50
2022-09-11T22:43:48.802Z,26.95
2022-09-11T22:46:17.108Z,28.58
2022-09-11T22:48:44.813Z,30.45
2022-09-11T22:51:12.751Z,35.72
2022-09-11T22:53:40.596Z,26.33
2022-09-11T22:56:09.404Z,28.55
2022-09-11T22:58:38.311Z,30.70
2022-09-11T23:01:09.469Z,30.83
2022-09-11T23:03:37.770Z,35.60
2022-09-11T23:06:23.691Z,30.58
2022-09-11T23:08:52.292Z,32.65
2022-09-11T23:11:21.957Z,35.15
2022-09-11T23:13:52.107Z,33.95
2022-09-11T23:16:22.592Z,35.65
2022-09-11T23:18:55.006Z,36.30
2022-09-11T23:21:22.894Z,33.42
2022-09-11T23:23:54.944Z,33.22
2022-09-11T23:26:23.281Z,34.85
2022-09-11T23:28:51.635Z,34.78
2022-09-11T23:31:28.661Z,37.60
2022-09-11T23:33:59.073Z,34.40
2022-09-11T23:36:27.310Z,35.83
2022-09-11T23:38:54.982Z,36.97
2022-09-11T23:41:23.457Z,41.38
2022-09-11T23:43:51.396Z,37.88
2022-09-11T23:46:18.846Z,35.88
2022-09-11T23:48:46.773Z,42.33
2022-09-11T23:51:15.592Z,39.15
2022-09-11T23:53:44.995Z,37.58
2022-09-11T23:56:15.033Z,37.00
2022-09-11T23:58:45.199Z,46.85
